createdAt,value
2023-04-21T00:02:00.787Z,12.13
2023-04-21T00:04:29.938Z,12.68
2023-04-21T00:07:01.510Z,10.00
2023-04-21T00:09:30.515Z,11.98
2023-04-21T00:11:59.409Z,10.70
2023-04-21T00:14:28.116Z,12.40
2023-04-21T00:16:56.714Z,12.02
2023-04-21T00:19:25.823Z,12.77
2023-04-21T00:21:58.927Z,12.50
2023-04-21T00:24:29.094Z,12.73
2023-04-21T00:26:58.856Z,13.90
2023-04-21T00:29:28.621Z,15.38
2023-04-21T00:31:58.426Z,13.77
2023-04-21T00:34:27.008Z,14.07
2023-04-21T00:36:55.412Z,15.85
2023-04-21T00:39:24.101Z,16.15
2023-04-21T00:41:54.036Z,16.95
2023-04-21T00:44:22.873Z,14.40
2023-04-21T00:46:51.418Z,13.98
2023-04-21T00:49:20.334Z,14.15
2023-04-21T00:51:51.299Z,13.55
2023-04-21T00:54:20.634Z,12.40
2023-04-21T00:56:49.628Z,13.40
2023-04-21T00:59:19.845Z,11.98
2023-04-21T01:01:48.425Z,14.13
2023-04-21T01:04:17.099Z,11.50
2023-04-21T01:06:46.478Z,11.18
2023-04-21T01:09:15.048Z,13.45
2023-04-21T01:11:43.524Z,12.88
2023-04-21T01:14:12.107Z,12.70
2023-04-21T01:16:42.048Z,15.38
2023-04-21T01:19:11.781Z,14.73
2023-04-21T01:21:44.776Z,13.45
2023-04-21T01:24:13.560Z,13.93
2023-04-21T01:26:42.235Z,16.13
2023-04-21T01:29:10.753Z,15.20
2023-04-21T01:31:39.328Z,12.95
2023-04-21T01:34:09.656Z,15.32
2023-04-21T01:36:38.970Z,16.38
2023-04-21T01:39:09.061Z,14.68
2023-04-21T01:41:37.727Z,14.05
2023-04-21T01:44:06.323Z,13.50
2023-04-21T01:46:34.998Z,14.57
2023-04-21T01:49:04.753Z,12.30
2023-04-21T01:51:35.068Z,13.10
2023-04-21T01:54:03.641Z,10.23
2023-04-21T01:56:33.572Z,12.60
2023-04-21T01:59:02.445Z,12.70
2023-04-21T02:01:31.320Z,12.25
2023-04-21T02:04:00.140Z,12.48
2023-04-21T02:06:28.938Z,12.07
2023-04-21T02:09:02.512Z,11.05
2023-04-21T02:11:34.630Z,11.10
2023-04-21T02:14:03.185Z,12.30
2023-04-21T02:16:51.220Z,10.88
2023-04-21T02:19:20.278Z,9.80
2023-04-21T02:21:49.187Z,10.18
2023-04-21T02:24:17.898Z,10.50
2023-04-21T02:26:48.859Z,12.20
2023-04-21T02:29:17.800Z,11.35
2023-04-21T02:31:58.923Z,11.45
2023-04-21T02:34:29.738Z,12.70
2023-04-21T02:36:59.353Z,14.25
2023-04-21T02:39:27.958Z,10.82
2023-04-21T02:41:58.407Z,10.77
2023-04-21T02:44:27.014Z,13.32
2023-04-21T02:46:55.637Z,14.50
2023-04-21T02:49:24.215Z,12.73
2023-04-21T02:51:52.729Z,13.48
2023-04-21T02:54:21.318Z,12.80
2023-04-21T02:56:50.001Z,13.25
2023-04-21T02:59:20.389Z,12.50
2023-04-21T03:01:49.235Z,12.25
2023-04-21T03:04:17.815Z,10.95
2023-04-21T03:06:46.395Z,11.80
2023-04-21T03:09:14.846Z,11.48
2023-04-21T03:11:43.361Z,10.25
2023-04-21T03:14:11.946Z,12.23
2023-04-21T03:16:41.858Z,11.07
2023-04-21T03:19:10.555Z,10.18
2023-04-21T03:21:39.972Z,11.25
2023-04-21T03:24:08.731Z,10.70
2023-04-21T03:26:37.487Z,10.52
2023-04-21T03:29:07.350Z,10.20
2023-04-21T03:31:36.020Z,11.88
2023-04-21T03:34:06.037Z,10.77
2023-04-21T03:36:34.487Z,10.50
2023-04-21T03:39:18.715Z,11.13
2023-04-21T03:44:16.830Z,9.63
2023-04-21T03:46:45.401Z,9.77
2023-04-21T03:49:15.205Z,9.32
2023-04-21T03:51:43.668Z,9.70
2023-04-21T03:54:12.192Z,11.88
2023-04-21T03:56:40.702Z,8.70
2023-04-21T03:59:09.195Z,9.07
2023-04-21T04:01:37.762Z,10.63
2023-04-21T04:04:06.770Z,10.50
2023-04-21T04:06:36.899Z,9.52
2023-04-21T04:09:05.633Z,8.38
2023-04-21T04:11:34.235Z,8.95
2023-04-21T04:14:02.808Z,10.25
2023-04-21T04:16:31.740Z,9.27
2023-04-21T04:19:00.392Z,9.02
2023-04-21T04:21:28.938Z,8.38
2023-04-21T04:23:59.099Z,8.85
2023-04-21T04:26:27.781Z,8.90
2023-04-21T04:28:56.868Z,8.43
2023-04-21T04:31:25.804Z,9.73
2023-04-21T04:33:55.651Z,9.05
2023-04-21T04:36:24.905Z,7.60
2023-04-21T04:38:53.586Z,9.57
2023-04-21T04:41:24.206Z,8.93
2023-04-21T04:43:53.596Z,8.82
2023-04-21T04:46:24.856Z,7.65
2023-04-21T04:48:53.593Z,8.35
2023-04-21T04:51:23.256Z,7.95
2023-04-21T04:53:51.795Z,9.30
2023-04-21T04:56:20.501Z,9.32
2023-04-21T04:58:50.823Z,9.52
2023-04-21T05:01:19.610Z,9.38
2023-04-21T05:03:48.555Z,8.65
2023-04-21T05:06:17.166Z,8.57
2023-04-21T05:08:45.881Z,7.25
2023-04-21T05:11:15.078Z,7.63
2023-04-21T05:13:43.662Z,7.43
2023-04-21T05:16:13.718Z,7.93
2023-04-21T05:18:42.416Z,7.40
2023-04-21T05:21:11.089Z,8.02
2023-04-21T05:23:39.732Z,7.93
2023-04-21T05:26:08.292Z,7.70
2023-04-21T05:28:37.236Z,7.93
2023-04-21T05:31:06.935Z,7.68
2023-04-21T05:33:36.943Z,8.60
2023-04-21T05:36:09.020Z,8.20
2023-04-21T05:38:38.151Z,7.70
2023-04-21T05:41:07.385Z,8.10
2023-04-21T05:43:36.327Z,7.90
2023-04-21T05:46:11.049Z,7.78
2023-04-21T05:48:41.823Z,7.70
2023-04-21T05:51:11.595Z,8.00
2023-04-21T05:53:41.759Z,6.88
2023-04-21T05:56:11.174Z,7.35
2023-04-21T05:58:41.782Z,7.65
2023-04-21T06:01:10.326Z,7.35
2023-04-21T06:03:38.905Z,7.00
2023-04-21T06:06:10.375Z,6.80
2023-04-21T06:08:38.856Z,7.25
2023-04-21T06:11:07.397Z,8.00
2023-04-21T06:13:38.365Z,6.88
2023-04-21T06:16:07.977Z,7.80
2023-04-21T06:18:36.607Z,8.52
2023-04-21T06:21:05.809Z,7.82
2023-04-21T06:23:35.912Z,8.30
2023-04-21T06:26:06.908Z,7.18
2023-04-21T06:28:37.079Z,8.38
2023-04-21T06:31:08.761Z,8.07
2023-04-21T06:33:38.084Z,9.05
2023-04-21T06:36:07.381Z,9.77
2023-04-21T06:38:37.423Z,9.75
2023-04-21T06:41:06.616Z,9.82
2023-04-21T06:43:35.305Z,9.45
2023-04-21T06:46:04.299Z,12.60
2023-04-21T06:48:32.963Z,9.60
2023-04-21T06:51:02.793Z,9.93
2023-04-21T06:53:31.682Z,11.52
2023-04-21T06:56:01.730Z,9.73
2023-04-21T06:58:30.394Z,9.68
2023-04-21T07:00:59.063Z,9.25
2023-04-21T07:03:30.727Z,9.68
2023-04-21T07:05:59.416Z,9.77
2023-04-21T07:08:28.124Z,9.02
2023-04-21T07:10:57.021Z,7.85
2023-04-21T07:13:26.920Z,7.07
2023-04-21T07:15:55.785Z,9.13
2023-04-21T07:18:24.495Z,8.65
2023-04-21T07:20:53.101Z,7.80
2023-04-21T07:23:21.490Z,8.57
2023-04-21T07:25:49.992Z,7.88
2023-04-21T07:28:18.596Z,7.88
2023-04-21T07:30:48.604Z,8.25
2023-04-21T07:33:21.020Z,10.10
2023-04-21T07:35:49.660Z,9.35
2023-04-21T07:38:18.500Z,7.68
2023-04-21T07:40:47.090Z,8.95
2023-04-21T07:43:19.581Z,9.05
2023-04-21T07:45:52.610Z,7.63
2023-04-21T07:48:21.259Z,9.15
2023-04-21T07:50:50.453Z,9.57
2023-04-21T07:53:20.000Z,9.68
2023-04-21T07:55:48.555Z,7.88
2023-04-21T07:58:18.453Z,12.20
2023-04-21T08:00:47.331Z,14.45
2023-04-21T08:03:17.385Z,12.40
2023-04-21T08:05:46.233Z,10.20
2023-04-21T08:08:20.340Z,10.77
2023-04-21T08:10:58.911Z,9.82
2023-04-21T08:13:28.115Z,10.13
2023-04-21T08:16:00.892Z,9.57
2023-04-21T08:18:33.184Z,11.18
2023-04-21T08:21:03.244Z,9.90
2023-04-21T08:23:34.522Z,14.50
2023-04-21T08:26:07.876Z,10.63
2023-04-21T08:28:41.259Z,12.23
2023-04-21T08:31:13.578Z,12.02
2023-04-21T08:34:01.272Z,11.38
2023-04-21T08:36:38.951Z,11.05
2023-04-21T08:39:07.943Z,12.32
2023-04-21T08:41:39.786Z,11.40
2023-04-21T08:44:08.650Z,11.20
2023-04-21T08:46:37.913Z,10.13
2023-04-21T08:49:10.437Z,11.88
2023-04-21T08:51:38.990Z,12.25
2023-04-21T08:54:07.432Z,9.63
2023-04-21T08:56:37.592Z,9.40
2023-04-21T08:59:06.156Z,13.60
2023-04-21T09:01:34.660Z,14.25
2023-04-21T09:04:19.364Z,13.27
2023-04-21T09:06:49.701Z,12.43
2023-04-21T09:09:18.456Z,13.90
2023-04-21T09:11:57.200Z,17.80
2023-04-21T09:14:32.598Z,14.57
2023-04-21T09:17:02.674Z,15.20
2023-04-21T09:19:35.373Z,14.57
2023-04-21T09:22:03.914Z,13.95
2023-04-21T09:24:32.282Z,15.57
2023-04-21T09:27:04.385Z,14.23
2023-04-21T09:29:32.949Z,12.82
2023-04-21T09:32:03.171Z,15.85
2023-04-21T09:34:35.455Z,16.92
2023-04-21T09:37:06.131Z,15.95
2023-04-21T09:39:46.408Z,14.80
2023-04-21T09:42:29.299Z,13.73
2023-04-21T09:45:10.970Z,14.85
2023-04-21T09:47:52.770Z,14.48
2023-04-21T09:50:54.390Z,15.45
2023-04-21T09:53:17.580Z,16.27
2023-04-21T09:55:50.145Z,16.88
2023-04-21T09:58:23.732Z,14.93
2023-04-21T10:00:56.807Z,16.33
2023-04-21T10:03:28.763Z,15.10
2023-04-21T10:05:58.926Z,14.35
2023-04-21T10:08:29.445Z,17.25
2023-04-21T10:10:58.892Z,15.85
2023-04-21T10:13:27.848Z,16.50
2023-04-21T10:16:03.867Z,15.50
2023-04-21T10:18:33.031Z,16.77
2023-04-21T10:21:07.534Z,20.05
2023-04-21T10:23:40.834Z,15.63
2023-04-21T10:26:15.207Z,14.43
2023-04-21T10:28:59.453Z,20.13
2023-04-21T10:31:33.728Z,17.90
2023-04-21T10:34:20.043Z,15.38
2023-04-21T10:37:25.640Z,20.45
2023-04-21T10:39:57.074Z,20.35
2023-04-21T10:42:34.721Z,16.80
2023-04-21T10:45:11.810Z,15.07
2023-04-21T10:47:45.088Z,17.88
2023-04-21T10:50:18.963Z,19.85
2023-04-21T10:52:52.950Z,17.00
2023-04-21T10:55:23.437Z,17.50
2023-04-21T10:57:53.434Z,20.33
2023-04-21T11:00:24.228Z,16.27
2023-04-21T11:02:58.293Z,19.90
2023-04-21T11:05:38.769Z,17.95
2023-04-21T11:08:09.521Z,17.67
2023-04-21T11:10:53.812Z,15.43
2023-04-21T11:13:24.199Z,16.80
2023-04-21T11:16:01.636Z,15.25
2023-04-21T11:18:41.315Z,16.55
2023-04-21T11:21:11.468Z,17.58
2023-04-21T11:23:48.917Z,16.45
2023-04-21T11:26:20.261Z,16.40
2023-04-21T11:28:50.867Z,13.25
2023-04-21T11:31:19.509Z,17.38
2023-04-21T11:33:48.010Z,17.00
2023-04-21T11:36:17.740Z,18.77
2023-04-21T11:38:46.802Z,14.32
2023-04-21T11:41:23.923Z,13.80
2023-04-21T11:43:53.471Z,15.13
2023-04-21T11:46:25.730Z,15.32
2023-04-21T11:49:02.244Z,17.10
2023-04-21T11:51:34.762Z,14.50
2023-04-21T11:54:05.394Z,12.88
2023-04-21T11:56:38.956Z,13.93
2023-04-21T11:59:11.879Z,15.20
2023-04-21T12:01:46.634Z,17.00
2023-04-21T12:04:17.331Z,16.63
2023-04-21T12:06:46.502Z,17.35
2023-04-21T12:09:19.788Z,16.23
2023-04-21T12:11:52.054Z,17.60
2023-04-21T12:14:22.185Z,16.95
2023-04-21T12:16:51.770Z,17.52
2023-04-21T12:19:24.438Z,17.33
2023-04-21T12:21:55.789Z,16.67
2023-04-21T12:24:24.830Z,14.98
2023-04-21T12:26:54.964Z,12.95
2023-04-21T12:29:23.396Z,13.13
2023-04-21T12:31:54.431Z,11.80
2023-04-21T12:34:24.283Z,12.98
2023-04-21T12:36:52.852Z,14.00
2023-04-21T12:39:22.300Z,12.98
2023-04-21T12:41:51.486Z,12.43
2023-04-21T12:44:21.942Z,12.30
2023-04-21T12:46:50.709Z,12.00
2023-04-21T12:49:19.877Z,13.38
2023-04-21T12:51:50.053Z,13.57
2023-04-21T12:54:19.302Z,11.80
2023-04-21T12:56:48.418Z,11.65
2023-04-21T12:59:16.872Z,10.25
2023-04-21T13:01:46.747Z,11.43
2023-04-21T13:04:15.523Z,10.23
2023-04-21T13:06:44.162Z,10.30
2023-04-21T13:09:12.666Z,10.35
2023-04-21T13:11:41.542Z,10.18
2023-04-21T13:14:10.643Z,9.02
2023-04-21T13:16:39.236Z,9.95
2023-04-21T13:19:09.079Z,9.88
2023-04-21T13:21:37.465Z,7.82
2023-04-21T13:24:06.218Z,9.80
2023-04-21T13:26:35.278Z,8.13
2023-04-21T13:29:04.687Z,9.95
2023-04-21T13:31:33.367Z,9.27
2023-04-21T13:34:02.218Z,7.97
2023-04-21T13:36:33.566Z,8.23
2023-04-21T13:39:04.574Z,7.57
2023-04-21T13:41:33.142Z,8.85
2023-04-21T13:44:01.855Z,8.68
2023-04-21T13:46:30.408Z,11.45
2023-04-21T13:48:59.359Z,8.45
2023-04-21T13:51:30.136Z,8.57
2023-04-21T13:54:00.224Z,8.05
2023-04-21T13:56:31.980Z,8.75
2023-04-21T13:59:00.598Z,7.32
2023-04-21T14:01:29.466Z,7.50
2023-04-21T14:03:58.366Z,8.50
2023-04-21T14:06:28.083Z,7.82
2023-04-21T14:08:56.516Z,7.65
2023-04-21T14:11:27.626Z,6.47
2023-04-21T14:14:09.061Z,7.07
2023-04-21T14:16:39.116Z,6.20
2023-04-21T14:19:09.905Z,6.20
2023-04-21T14:21:38.443Z,6.13
2023-04-21T14:24:07.062Z,7.50
2023-04-21T14:26:38.457Z,6.35
2023-04-21T14:29:07.231Z,6.53
2023-04-21T14:31:36.044Z,6.35
2023-04-21T14:34:05.924Z,6.28
2023-04-21T14:36:34.527Z,6.20
2023-04-21T14:39:03.437Z,7.85
2023-04-21T14:41:31.990Z,6.22
2023-04-21T14:44:03.243Z,6.68
2023-04-21T14:46:34.548Z,6.53
2023-04-21T14:49:03.388Z,6.82
2023-04-21T14:51:32.979Z,6.57
2023-04-21T14:54:01.523Z,6.65
2023-04-21T14:56:29.922Z,5.60
2023-04-21T14:58:58.396Z,6.15
2023-04-21T15:01:28.607Z,5.88
2023-04-21T15:03:59.940Z,6.00
2023-04-21T15:06:29.181Z,5.97
2023-04-21T15:08:57.646Z,6.22
2023-04-21T15:11:26.384Z,6.75
2023-04-21T15:13:55.332Z,5.95
2023-04-21T15:16:23.899Z,6.43
2023-04-21T15:18:53.795Z,5.93
2023-04-21T15:21:22.679Z,5.43
2023-04-21T15:23:51.073Z,5.60
2023-04-21T15:26:19.850Z,5.68
2023-04-21T15:28:48.322Z,6.72
2023-04-21T15:31:18.591Z,6.93
2023-04-21T15:33:50.366Z,7.05
2023-04-21T15:36:20.209Z,7.88
2023-04-21T15:38:48.682Z,7.68
2023-04-21T15:41:17.543Z,8.88
2023-04-21T15:43:46.468Z,8.00
2023-04-21T15:46:14.945Z,7.57
2023-04-21T15:48:44.407Z,7.15
2023-04-21T15:51:14.447Z,6.40
2023-04-21T15:53:47.777Z,6.28
2023-04-21T15:56:17.233Z,5.90
2023-04-21T15:58:45.829Z,6.28
2023-04-21T16:01:14.379Z,6.55
2023-04-21T16:03:43.199Z,6.10
2023-04-21T16:06:11.897Z,5.55
2023-04-21T16:08:41.563Z,5.20
2023-04-21T16:11:11.516Z,5.65
2023-04-21T16:13:40.479Z,5.63
2023-04-21T16:16:09.868Z,7.13
2023-04-21T16:18:39.780Z,6.10
2023-04-21T16:21:08.345Z,5.38
2023-04-21T16:23:37.266Z,5.15
2023-04-21T16:26:08.181Z,6.20
2023-04-21T16:28:38.248Z,5.97
2023-04-21T16:31:07.065Z,6.00
2023-04-21T16:33:35.855Z,5.05
2023-04-21T16:36:05.022Z,4.88
2023-04-21T16:38:33.679Z,4.97
2023-04-21T16:41:02.283Z,5.13
2023-04-21T16:43:31.065Z,5.72
2023-04-21T16:46:00.988Z,4.55
2023-04-21T16:48:29.597Z,4.53
2023-04-21T16:50:58.358Z,6.15
2023-04-21T16:53:27.141Z,5.32
2023-04-21T16:55:55.844Z,5.07
2023-04-21T16:58:26.166Z,4.43
2023-04-21T17:00:54.903Z,4.60
2023-04-21T17:03:26.278Z,4.25
2023-04-21T17:05:54.923Z,4.75
2023-04-21T17:08:23.434Z,3.92
2023-04-21T17:10:52.326Z,4.40
2023-04-21T17:13:21.595Z,4.65
2023-04-21T17:15:50.179Z,5.55
2023-04-21T17:18:18.858Z,4.53
2023-04-21T17:20:50.333Z,4.38
2023-04-21T17:23:19.643Z,4.57
2023-04-21T17:25:48.225Z,4.53
2023-04-21T17:28:17.430Z,4.95
2023-04-21T17:30:46.465Z,4.32
2023-04-21T17:33:17.152Z,4.60
2023-04-21T17:36:02.367Z,4.10
2023-04-21T17:38:33.534Z,4.18
2023-04-21T17:41:03.108Z,4.03
2023-04-21T17:43:31.650Z,4.68
2023-04-21T17:46:02.625Z,4.30
2023-04-21T17:48:31.353Z,5.60
2023-04-21T17:51:00.005Z,4.50
2023-04-21T17:53:28.556Z,4.72
2023-04-21T17:55:58.781Z,4.40
2023-04-21T17:58:27.701Z,4.35
2023-04-21T18:00:57.090Z,4.20
2023-04-21T18:03:27.467Z,4.78
2023-04-21T18:05:56.630Z,5.07
2023-04-21T18:08:25.722Z,4.20
2023-04-21T18:10:55.542Z,4.43
2023-04-21T18:13:25.574Z,5.45
2023-04-21T18:15:54.308Z,4.95
2023-04-21T18:18:23.335Z,5.03
2023-04-21T18:20:52.140Z,4.50
2023-04-21T18:23:20.664Z,4.90
2023-04-21T18:25:49.393Z,4.55
2023-04-21T18:28:18.407Z,4.32
2023-04-21T18:30:48.663Z,4.70
2023-04-21T18:33:18.490Z,5.38
2023-04-21T18:35:47.153Z,4.70
2023-04-21T18:38:15.847Z,4.28
2023-04-21T18:40:44.575Z,4.22
2023-04-21T18:43:13.338Z,4.93
2023-04-21T18:45:41.869Z,4.50
2023-04-21T18:48:12.135Z,5.50
2023-04-21T18:50:41.679Z,4.72
2023-04-21T18:53:11.036Z,4.95
2023-04-21T18:55:39.796Z,5.05
2023-04-21T18:58:08.777Z,4.65
2023-04-21T19:00:39.239Z,5.32
2023-04-21T19:03:08.514Z,5.85
2023-04-21T19:05:40.582Z,4.75
2023-04-21T19:08:10.855Z,4.13
2023-04-21T19:10:40.350Z,4.22
2023-04-21T19:13:09.221Z,5.30
2023-04-21T19:15:38.571Z,5.00
2023-04-21T19:18:08.097Z,4.78
2023-04-21T19:20:41.278Z,4.32
2023-04-21T19:23:10.061Z,4.45
2023-04-21T19:25:38.815Z,5.43
2023-04-21T19:28:07.887Z,5.07
2023-04-21T19:30:36.819Z,5.03
2023-04-21T19:33:06.179Z,5.40
2023-04-21T19:35:35.146Z,4.68
2023-04-21T19:38:05.936Z,4.07
2023-04-21T19:40:35.060Z,3.50
2023-04-21T19:43:04.707Z,3.60
2023-04-21T19:45:35.152Z,4.50
2023-04-21T19:48:04.654Z,4.70
2023-04-21T19:50:40.051Z,4.30
2023-04-21T19:53:15.653Z,3.75
2023-04-21T20:04:34.506Z,4.13
2023-04-21T20:07:12.370Z,4.18
2023-04-21T20:10:15.617Z,3.95
2023-04-21T20:12:56.777Z,3.28
2023-04-21T20:15:26.975Z,3.83
2023-04-21T20:17:55.700Z,3.08
2023-04-21T20:20:24.634Z,3.90
2023-04-21T20:22:53.295Z,3.60
2023-04-21T20:25:23.350Z,3.65
2023-04-21T20:27:52.169Z,3.53
2023-04-21T20:30:21.122Z,2.97
2023-04-21T20:32:50.503Z,3.15
2023-04-21T20:35:19.343Z,3.40
2023-04-21T20:37:48.160Z,3.80
2023-04-21T20:40:18.480Z,4.18
2023-04-21T20:42:48.935Z,3.03
2023-04-21T20:45:18.486Z,4.20
2023-04-21T20:47:47.335Z,2.80
2023-04-21T20:50:16.166Z,2.92
2023-04-21T20:52:44.734Z,3.10
2023-04-21T20:55:13.705Z,3.17
2023-04-21T20:57:42.378Z,3.17
2023-04-21T21:00:13.714Z,3.45
2023-04-21T21:02:42.770Z,2.78
2023-04-21T21:05:11.589Z,2.75
2023-04-21T21:07:40.403Z,3.50
2023-04-21T21:10:11.468Z,3.92
2023-04-21T21:12:40.264Z,3.20
2023-04-21T21:15:09.665Z,3.85
2023-04-21T21:17:39.889Z,4.35
2023-04-21T21:20:09.983Z,3.35
2023-04-21T21:22:38.856Z,3.30
2023-04-21T21:25:08.109Z,4.63
2023-04-21T21:27:36.909Z,4.72
2023-04-21T21:30:06.731Z,5.63
2023-04-21T21:32:35.994Z,3.80
2023-04-21T21:35:07.625Z,3.30
2023-04-21T21:37:36.893Z,3.22
2023-04-21T21:40:06.738Z,3.83
2023-04-21T21:42:35.548Z,3.20
2023-04-21T21:45:04.273Z,3.50
2023-04-21T21:47:36.507Z,3.65
2023-04-21T21:50:11.235Z,3.17
2023-04-21T21:52:39.904Z,3.70
2023-04-21T21:55:09.618Z,4.57
2023-04-21T21:57:38.395Z,3.53
2023-04-21T22:00:13.023Z,3.20
2023-04-21T22:02:44.902Z,3.53
2023-04-21T22:05:15.109Z,3.70
2023-04-21T22:07:48.990Z,3.85
2023-04-21T22:10:17.565Z,3.60
2023-04-21T22:12:46.971Z,5.03
2023-04-21T22:15:16.734Z,4.63
2023-04-21T22:17:45.744Z,4.80
2023-04-21T22:20:17.899Z,4.80
2023-04-21T22:22:46.593Z,3.78
2023-04-21T22:25:18.404Z,4.30
2023-04-21T22:27:47.311Z,4.00
2023-04-21T22:30:16.270Z,4.07
2023-04-21T22:32:45.195Z,4.43
2023-04-21T22:35:15.446Z,4.78
2023-04-21T22:37:44.040Z,4.65
2023-04-21T22:40:13.331Z,4.35
2023-04-21T22:42:42.041Z,4.10
2023-04-21T22:45:11.296Z,5.80
2023-04-21T22:47:39.961Z,5.13
2023-04-21T22:50:10.818Z,4.05
2023-04-21T22:52:40.670Z,3.88
2023-04-21T22:55:10.248Z,4.05
2023-04-21T22:57:39.097Z,3.70
2023-04-21T23:00:09.884Z,3.92
2023-04-21T23:02:38.812Z,3.78
2023-04-21T23:05:08.575Z,3.78
2023-04-21T23:07:37.580Z,3.90
2023-04-21T23:10:08.358Z,4.20
2023-04-21T23:12:36.885Z,4.35
2023-04-21T23:15:06.166Z,3.58
2023-04-21T23:17:34.862Z,4.03
2023-04-21T23:20:05.450Z,3.38
2023-04-21T23:22:34.019Z,3.78
2023-04-21T23:25:02.587Z,4.00
2023-04-21T23:27:32.423Z,3.30
2023-04-21T23:30:01.075Z,3.67
2023-04-21T23:32:29.874Z,3.67
2023-04-21T23:34:58.644Z,3.25
2023-04-21T23:37:27.289Z,3.40
2023-04-21T23:39:56.346Z,3.92
2023-04-21T23:42:25.320Z,3.45
2023-04-21T23:44:56.106Z,3.58
2023-04-21T23:47:24.693Z,4.07
2023-04-21T23:49:53.214Z,3.28
2023-04-21T23:52:21.823Z,3.55
2023-04-21T23:54:50.714Z,3.60
2023-04-21T23:57:19.649Z,3.60
2023-04-21T23:59:48.291Z,3.72
